sensor_id;sensor_type;location;lat;lon;timestamp;P1;durP1;ratioP1;P2;durP2;ratioP2
3491;SDS011;1760;52.480;13.422;2022-12-16T00:00:51;19.07;;;10.07;;
3491;SDS011;1760;52.480;13.422;2022-12-16T00:03:29;24.03;;;10.27;;
3491;SDS011;1760;52.480;13.422;2022-12-16T00:05:55;20.87;;;11.70;;
3491;SDS011;1760;52.480;13.422;2022-12-16T00:08:22;17.83;;;9.77;;
3491;SDS011;1760;52.480;13.422;2022-12-16T00:10:49;18.63;;;10.40;;
3491;SDS011;1760;52.480;13.422;2022-12-16T00:13:23;20.83;;;11.10;;
3491;SDS011;1760;52.480;13.422;2022-12-16T00:15:51;9.20;;;7.27;;
3491;SDS011;1760;52.480;13.422;2022-12-16T00:18:18;26.73;;;13.33;;
3491;SDS011;1760;52.480;13.422;2022-12-16T00:20:48;23.07;;;11.30;;
3491;SDS011;1760;52.480;13.422;2022-12-16T00:23:17;21.20;;;12.27;;
3491;SDS011;1760;52.480;13.422;2022-12-16T00:25:44;19.10;;;9.67;;
3491;SDS011;1760;52.480;13.422;2022-12-16T00:28:13;16.63;;;11.63;;
3491;SDS011;1760;52.480;13.422;2022-12-16T00:30:42;9.43;;;7.67;;
3491;SDS011;1760;52.480;13.422;2022-12-16T00:33:10;25.10;;;9.50;;
3491;SDS011;1760;52.480;13.422;2022-12-16T00:35:42;14.03;;;8.17;;
3491;SDS011;1760;52.480;13.422;2022-12-16T00:38:09;17.43;;;8.97;;
3491;SDS011;1760;52.480;13.422;2022-12-16T00:40:36;22.97;;;10.50;;
3491;SDS011;1760;52.480;13.422;2022-12-16T00:43:03;15.07;;;8.50;;
3491;SDS011;1760;52.480;13.422;2022-12-16T00:45:30;14.97;;;7.37;;
3491;SDS011;1760;52.480;13.422;2022-12-16T00:47:58;25.67;;;11.27;;
3491;SDS011;1760;52.480;13.422;2022-12-16T00:50:25;10.47;;;8.17;;
3491;SDS011;1760;52.480;13.422;2022-12-16T00:52:52;17.23;;;8.60;;
3491;SDS011;1760;52.480;13.422;2022-12-16T00:55:19;19.33;;;9.60;;
3491;SDS011;1760;52.480;13.422;2022-12-16T00:57:46;17.33;;;10.60;;
3491;SDS011;1760;52.480;13.422;2022-12-16T01:00:16;24.30;;;10.63;;
3491;SDS011;1760;52.480;13.422;2022-12-16T01:02:47;24.43;;;11.00;;
3491;SDS011;1760;52.480;13.422;2022-12-16T01:05:16;27.23;;;8.33;;
3491;SDS011;1760;52.480;13.422;2022-12-16T01:07:46;23.93;;;11.40;;
3491;SDS011;1760;52.480;13.422;2022-12-16T01:10:13;25.87;;;8.07;;
3491;SDS011;1760;52.480;13.422;2022-12-16T01:12:40;26.00;;;9.50;;
3491;SDS011;1760;52.480;13.422;2022-12-16T01:15:08;16.60;;;9.10;;
3491;SDS011;1760;52.480;13.422;2022-12-16T01:17:39;13.50;;;7.83;;
3491;SDS011;1760;52.480;13.422;2022-12-16T01:20:07;12.40;;;8.23;;
3491;SDS011;1760;52.480;13.422;2022-12-16T01:22:36;8.80;;;6.10;;
3491;SDS011;1760;52.480;13.422;2022-12-16T01:25:03;22.70;;;7.67;;
3491;SDS011;1760;52.480;13.422;2022-12-16T01:27:30;30.03;;;13.13;;
3491;SDS011;1760;52.480;13.422;2022-12-16T01:29:57;15.53;;;8.00;;
3491;SDS011;1760;52.480;13.422;2022-12-16T01:32:24;11.30;;;7.83;;
3491;SDS011;1760;52.480;13.422;2022-12-16T01:34:52;19.90;;;11.23;;
3491;SDS011;1760;52.480;13.422;2022-12-16T01:37:19;14.57;;;10.70;;
3491;SDS011;1760;52.480;13.422;2022-12-16T01:39:47;18.53;;;10.10;;
3491;SDS011;1760;52.480;13.422;2022-12-16T01:42:15;17.23;;;10.10;;
3491;SDS011;1760;52.480;13.422;2022-12-16T01:44:46;17.43;;;7.33;;
3491;SDS011;1760;52.480;13.422;2022-12-16T01:47:16;12.17;;;9.50;;
3491;SDS011;1760;52.480;13.422;2022-12-16T01:49:46;16.80;;;9.10;;
3491;SDS011;1760;52.480;13.422;2022-12-16T01:52:17;17.90;;;10.70;;
3491;SDS011;1760;52.480;13.422;2022-12-16T01:54:50;17.40;;;10.10;;
3491;SDS011;1760;52.480;13.422;2022-12-16T01:57:23;9.73;;;7.80;;
3491;SDS011;1760;52.480;13.422;2022-12-16T01:59:53;22.53;;;9.67;;
3491;SDS011;1760;52.480;13.422;2022-12-16T02:02:21;10.37;;;8.87;;
3491;SDS011;1760;52.480;13.422;2022-12-16T02:04:48;20.23;;;10.27;;
3491;SDS011;1760;52.480;13.422;2022-12-16T02:07:33;17.40;;;9.13;;
3491;SDS011;1760;52.480;13.422;2022-12-16T02:10:02;10.23;;;6.90;;
3491;SDS011;1760;52.480;13.422;2022-12-16T02:12:30;14.13;;;8.93;;
3491;SDS011;1760;52.480;13.422;2022-12-16T02:15:08;14.47;;;7.40;;
3491;SDS011;1760;52.480;13.422;2022-12-16T02:17:55;11.80;;;6.40;;
3491;SDS011;1760;52.480;13.422;2022-12-16T02:20:43;17.47;;;9.13;;
3491;SDS011;1760;52.480;13.422;2022-12-16T02:23:52;18.07;;;9.67;;
3491;SDS011;1760;52.480;13.422;2022-12-16T02:26:54;11.00;;;7.53;;
3491;SDS011;1760;52.480;13.422;2022-12-16T02:29:49;13.10;;;7.27;;
3491;SDS011;1760;52.480;13.422;2022-12-16T02:32:31;7.27;;;6.10;;
3491;SDS011;1760;52.480;13.422;2022-12-16T02:35:05;9.13;;;7.40;;
3491;SDS011;1760;52.480;13.422;2022-12-16T02:37:36;9.17;;;7.83;;
3491;SDS011;1760;52.480;13.422;2022-12-16T02:40:12;8.53;;;5.03;;
3491;SDS011;1760;52.480;13.422;2022-12-16T02:42:47;11.07;;;7.70;;
3491;SDS011;1760;52.480;13.422;2022-12-16T02:45:18;17.20;;;7.43;;
3491;SDS011;1760;52.480;13.422;2022-12-16T02:47:49;15.83;;;7.87;;
3491;SDS011;1760;52.480;13.422;2022-12-16T02:50:17;18.33;;;7.70;;
3491;SDS011;1760;52.480;13.422;2022-12-16T02:52:47;13.70;;;5.83;;
3491;SDS011;1760;52.480;13.422;2022-12-16T02:55:16;20.63;;;9.17;;
3491;SDS011;1760;52.480;13.422;2022-12-16T02:57:47;47.20;;;8.80;;
3491;SDS011;1760;52.480;13.422;2022-12-16T03:00:25;14.40;;;8.20;;
3491;SDS011;1760;52.480;13.422;2022-12-16T03:03:01;5.60;;;3.57;;
3491;SDS011;1760;52.480;13.422;2022-12-16T03:05:34;9.13;;;6.10;;
3491;SDS011;1760;52.480;13.422;2022-12-16T03:08:08;17.13;;;7.47;;
3491;SDS011;1760;52.480;13.422;2022-12-16T03:10:40;13.07;;;9.03;;
3491;SDS011;1760;52.480;13.422;2022-12-16T03:13:12;11.43;;;8.80;;
3491;SDS011;1760;52.480;13.422;2022-12-16T03:15:42;17.20;;;8.30;;
3491;SDS011;1760;52.480;13.422;2022-12-16T03:18:13;9.87;;;7.80;;
3491;SDS011;1760;52.480;13.422;2022-12-16T03:20:42;13.07;;;6.67;;
3491;SDS011;1760;52.480;13.422;2022-12-16T03:23:15;19.43;;;7.40;;
3491;SDS011;1760;52.480;13.422;2022-12-16T03:25:47;13.53;;;10.87;;
3491;SDS011;1760;52.480;13.422;2022-12-16T03:28:23;17.93;;;8.50;;
3491;SDS011;1760;52.480;13.422;2022-12-16T03:31:00;45.27;;;8.80;;
3491;SDS011;1760;52.480;13.422;2022-12-16T03:33:36;19.53;;;8.37;;
3491;SDS011;1760;52.480;13.422;2022-12-16T03:36:08;20.17;;;11.03;;
3491;SDS011;1760;52.480;13.422;2022-12-16T03:38:38;11.20;;;9.23;;
3491;SDS011;1760;52.480;13.422;2022-12-16T03:41:08;23.80;;;8.37;;
3491;SDS011;1760;52.480;13.422;2022-12-16T03:43:36;11.33;;;8.10;;
3491;SDS011;1760;52.480;13.422;2022-12-16T03:46:04;17.40;;;8.97;;
3491;SDS011;1760;52.480;13.422;2022-12-16T03:48:34;15.50;;;8.20;;
3491;SDS011;1760;52.480;13.422;2022-12-16T03:51:02;23.73;;;8.87;;
3491;SDS011;1760;52.480;13.422;2022-12-16T03:53:29;16.43;;;7.53;;
3491;SDS011;1760;52.480;13.422;2022-12-16T03:55:59;13.33;;;9.80;;
3491;SDS011;1760;52.480;13.422;2022-12-16T03:58:26;16.10;;;7.17;;
3491;SDS011;1760;52.480;13.422;2022-12-16T04:00:53;13.03;;;6.40;;
3491;SDS011;1760;52.480;13.422;2022-12-16T04:03:22;16.17;;;7.80;;
3491;SDS011;1760;52.480;13.422;2022-12-16T04:05:51;14.03;;;7.63;;
3491;SDS011;1760;52.480;13.422;2022-12-16T04:08:18;18.77;;;8.87;;
3491;SDS011;1760;52.480;13.422;2022-12-16T04:10:45;15.00;;;10.10;;
3491;SDS011;1760;52.480;13.422;2022-12-16T04:13:33;11.80;;;7.30;;
3491;SDS011;1760;52.480;13.422;2022-12-16T04:16:17;11.73;;;8.70;;
3491;SDS011;1760;52.480;13.422;2022-12-16T04:19:02;23.43;;;11.00;;
3491;SDS011;1760;52.480;13.422;2022-12-16T04:21:48;18.03;;;6.80;;
3491;SDS011;1760;52.480;13.422;2022-12-16T04:24:33;21.70;;;9.37;;
3491;SDS011;1760;52.480;13.422;2022-12-16T04:27:04;19.93;;;10.83;;
3491;SDS011;1760;52.480;13.422;2022-12-16T04:29:48;10.67;;;9.47;;
3491;SDS011;1760;52.480;13.422;2022-12-16T04:32:33;9.53;;;7.53;;
3491;SDS011;1760;52.480;13.422;2022-12-16T04:35:13;11.87;;;7.57;;
3491;SDS011;1760;52.480;13.422;2022-12-16T04:38:00;21.37;;;9.57;;
3491;SDS011;1760;52.480;13.422;2022-12-16T04:40:44;13.20;;;8.70;;
3491;SDS011;1760;52.480;13.422;2022-12-16T04:43:28;32.43;;;9.73;;
3491;SDS011;1760;52.480;13.422;2022-12-16T04:46:13;18.93;;;10.60;;
3491;SDS011;1760;52.480;13.422;2022-12-16T04:48:57;18.57;;;10.20;;
3491;SDS011;1760;52.480;13.422;2022-12-16T04:51:42;16.93;;;9.53;;
3491;SDS011;1760;52.480;13.422;2022-12-16T04:54:27;16.93;;;9.60;;
3491;SDS011;1760;52.480;13.422;2022-12-16T04:57:12;18.40;;;10.27;;
3491;SDS011;1760;52.480;13.422;2022-12-16T04:59:56;18.47;;;10.50;;
3491;SDS011;1760;52.480;13.422;2022-12-16T05:02:40;20.20;;;7.47;;
3491;SDS011;1760;52.480;13.422;2022-12-16T05:05:25;15.50;;;9.27;;
3491;SDS011;1760;52.480;13.422;2022-12-16T05:08:10;11.07;;;9.97;;
3491;SDS011;1760;52.480;13.422;2022-12-16T05:10:56;14.10;;;7.37;;
3491;SDS011;1760;52.480;13.422;2022-12-16T05:13:41;18.93;;;8.70;;
3491;SDS011;1760;52.480;13.422;2022-12-16T05:16:25;10.67;;;8.07;;
3491;SDS011;1760;52.480;13.422;2022-12-16T05:19:09;16.63;;;10.97;;
3491;SDS011;1760;52.480;13.422;2022-12-16T05:21:54;18.80;;;10.77;;
3491;SDS011;1760;52.480;13.422;2022-12-16T05:24:41;7.37;;;6.70;;
3491;SDS011;1760;52.480;13.422;2022-12-16T05:27:30;18.73;;;7.57;;
3491;SDS011;1760;52.480;13.422;2022-12-16T05:30:16;19.93;;;8.90;;
3491;SDS011;1760;52.480;13.422;2022-12-16T05:33:01;25.33;;;8.73;;
3491;SDS011;1760;52.480;13.422;2022-12-16T05:35:45;20.63;;;11.27;;
3491;SDS011;1760;52.480;13.422;2022-12-16T05:38:29;18.17;;;8.93;;
3491;SDS011;1760;52.480;13.422;2022-12-16T05:41:14;17.50;;;7.60;;
3491;SDS011;1760;52.480;13.422;2022-12-16T05:44:00;13.57;;;9.47;;
3491;SDS011;1760;52.480;13.422;2022-12-16T05:46:45;13.77;;;6.87;;
3491;SDS011;1760;52.480;13.422;2022-12-16T05:49:29;11.17;;;9.37;;
3491;SDS011;1760;52.480;13.422;2022-12-16T05:52:13;21.93;;;12.17;;
3491;SDS011;1760;52.480;13.422;2022-12-16T05:54:58;18.87;;;9.90;;
3491;SDS011;1760;52.480;13.422;2022-12-16T05:57:42;14.03;;;8.27;;
3491;SDS011;1760;52.480;13.422;2022-12-16T06:00:28;18.33;;;6.77;;
3491;SDS011;1760;52.480;13.422;2022-12-16T06:03:13;17.57;;;10.10;;
3491;SDS011;1760;52.480;13.422;2022-12-16T06:05:57;17.63;;;7.43;;
3491;SDS011;1760;52.480;13.422;2022-12-16T06:08:41;14.20;;;10.23;;
3491;SDS011;1760;52.480;13.422;2022-12-16T06:11:25;11.33;;;9.20;;
3491;SDS011;1760;52.480;13.422;2022-12-16T06:14:10;18.07;;;11.40;;
3491;SDS011;1760;52.480;13.422;2022-12-16T06:16:55;13.87;;;9.80;;
3491;SDS011;1760;52.480;13.422;2022-12-16T06:19:40;16.87;;;8.47;;
3491;SDS011;1760;52.480;13.422;2022-12-16T06:22:24;12.20;;;8.43;;
3491;SDS011;1760;52.480;13.422;2022-12-16T06:25:08;18.23;;;10.77;;
3491;SDS011;1760;52.480;13.422;2022-12-16T06:27:53;16.20;;;9.70;;
3491;SDS011;1760;52.480;13.422;2022-12-16T06:30:40;13.53;;;9.03;;
3491;SDS011;1760;52.480;13.422;2022-12-16T06:33:26;18.00;;;8.40;;
3491;SDS011;1760;52.480;13.422;2022-12-16T06:36:13;22.40;;;11.00;;
3491;SDS011;1760;52.480;13.422;2022-12-16T06:38:58;15.23;;;7.00;;
3491;SDS011;1760;52.480;13.422;2022-12-16T06:52:18;22.87;;;8.77;;
3491;SDS011;1760;52.480;13.422;2022-12-16T06:55:02;17.67;;;8.53;;
3491;SDS011;1760;52.480;13.422;2022-12-16T06:57:47;19.10;;;7.57;;
3491;SDS011;1760;52.480;13.422;2022-12-16T07:00:31;17.57;;;10.03;;
3491;SDS011;1760;52.480;13.422;2022-12-16T07:03:21;19.43;;;9.70;;
3491;SDS011;1760;52.480;13.422;2022-12-16T07:06:11;10.67;;;6.63;;
3491;SDS011;1760;52.480;13.422;2022-12-16T07:09:07;26.50;;;9.30;;
3491;SDS011;1760;52.480;13.422;2022-12-16T07:11:52;17.60;;;8.37;;
3491;SDS011;1760;52.480;13.422;2022-12-16T07:14:37;18.30;;;10.67;;
3491;SDS011;1760;52.480;13.422;2022-12-16T07:17:24;16.73;;;8.80;;
3491;SDS011;1760;52.480;13.422;2022-12-16T07:20:11;16.97;;;9.87;;
3491;SDS011;1760;52.480;13.422;2022-12-16T07:22:56;12.43;;;7.27;;
3491;SDS011;1760;52.480;13.422;2022-12-16T07:25:43;19.87;;;8.67;;
3491;SDS011;1760;52.480;13.422;2022-12-16T07:28:30;23.50;;;11.63;;
3491;SDS011;1760;52.480;13.422;2022-12-16T07:31:17;21.90;;;9.10;;
3491;SDS011;1760;52.480;13.422;2022-12-16T07:34:04;15.03;;;6.50;;
3491;SDS011;1760;52.480;13.422;2022-12-16T07:36:48;14.57;;;9.57;;
3491;SDS011;1760;52.480;13.422;2022-12-16T07:39:33;12.83;;;8.17;;
3491;SDS011;1760;52.480;13.422;2022-12-16T07:42:24;6.23;;;5.67;;
3491;SDS011;1760;52.480;13.422;2022-12-16T07:45:09;23.13;;;8.23;;
3491;SDS011;1760;52.480;13.422;2022-12-16T07:47:56;26.97;;;12.90;;
3491;SDS011;1760;52.480;13.422;2022-12-16T07:50:43;35.17;;;9.50;;
3491;SDS011;1760;52.480;13.422;2022-12-16T07:53:27;22.00;;;9.80;;
3491;SDS011;1760;52.480;13.422;2022-12-16T07:56:12;20.83;;;10.33;;
3491;SDS011;1760;52.480;13.422;2022-12-16T07:58:58;18.20;;;9.73;;
3491;SDS011;1760;52.480;13.422;2022-12-16T08:01:45;24.73;;;11.97;;
3491;SDS011;1760;52.480;13.422;2022-12-16T08:04:34;16.50;;;9.93;;
3491;SDS011;1760;52.480;13.422;2022-12-16T08:07:24;22.30;;;9.20;;
3491;SDS011;1760;52.480;13.422;2022-12-16T08:10:11;13.47;;;11.20;;
3491;SDS011;1760;52.480;13.422;2022-12-16T08:12:59;16.70;;;9.40;;
3491;SDS011;1760;52.480;13.422;2022-12-16T08:15:48;17.63;;;10.50;;
3491;SDS011;1760;52.480;13.422;2022-12-16T08:18:35;18.07;;;9.57;;
3491;SDS011;1760;52.480;13.422;2022-12-16T08:21:20;12.73;;;7.80;;
3491;SDS011;1760;52.480;13.422;2022-12-16T08:24:09;19.27;;;12.00;;
3491;SDS011;1760;52.480;13.422;2022-12-16T08:26:56;31.63;;;10.97;;
3491;SDS011;1760;52.480;13.422;2022-12-16T08:29:40;18.83;;;12.93;;
3491;SDS011;1760;52.480;13.422;2022-12-16T08:32:33;21.30;;;10.70;;
3491;SDS011;1760;52.480;13.422;2022-12-16T08:35:18;15.50;;;8.60;;
3491;SDS011;1760;52.480;13.422;2022-12-16T08:38:05;13.73;;;9.20;;
3491;SDS011;1760;52.480;13.422;2022-12-16T08:40:58;22.40;;;11.37;;
3491;SDS011;1760;52.480;13.422;2022-12-16T08:43:48;15.03;;;11.70;;
3491;SDS011;1760;52.480;13.422;2022-12-16T08:46:35;14.03;;;8.87;;
3491;SDS011;1760;52.480;13.422;2022-12-16T08:49:25;19.93;;;12.77;;
3491;SDS011;1760;52.480;13.422;2022-12-16T08:52:10;27.87;;;11.17;;
3491;SDS011;1760;52.480;13.422;2022-12-16T08:55:00;26.10;;;10.50;;
3491;SDS011;1760;52.480;13.422;2022-12-16T08:57:51;49.50;;;10.13;;
3491;SDS011;1760;52.480;13.422;2022-12-16T09:00:36;18.33;;;8.67;;
3491;SDS011;1760;52.480;13.422;2022-12-16T09:03:20;25.63;;;9.43;;
3491;SDS011;1760;52.480;13.422;2022-12-16T09:06:17;19.70;;;11.93;;
3491;SDS011;1760;52.480;13.422;2022-12-16T09:09:07;20.73;;;11.43;;
3491;SDS011;1760;52.480;13.422;2022-12-16T09:11:53;14.50;;;8.20;;
3491;SDS011;1760;52.480;13.422;2022-12-16T09:14:38;24.60;;;12.77;;
3491;SDS011;1760;52.480;13.422;2022-12-16T09:17:23;23.13;;;13.90;;
3491;SDS011;1760;52.480;13.422;2022-12-16T09:20:13;30.97;;;12.40;;
3491;SDS011;1760;52.480;13.422;2022-12-16T09:23:05;31.40;;;16.33;;
3491;SDS011;1760;52.480;13.422;2022-12-16T09:25:50;23.97;;;12.53;;
3491;SDS011;1760;52.480;13.422;2022-12-16T09:28:35;26.90;;;13.20;;
3491;SDS011;1760;52.480;13.422;2022-12-16T09:31:22;24.40;;;11.47;;
3491;SDS011;1760;52.480;13.422;2022-12-16T09:34:07;31.30;;;17.80;;
3491;SDS011;1760;52.480;13.422;2022-12-16T09:36:54;25.80;;;11.87;;
3491;SDS011;1760;52.480;13.422;2022-12-16T09:40:04;24.77;;;11.20;;
3491;SDS011;1760;52.480;13.422;2022-12-16T09:42:56;25.90;;;15.10;;
3491;SDS011;1760;52.480;13.422;2022-12-16T09:45:53;39.17;;;14.10;;
3491;SDS011;1760;52.480;13.422;2022-12-16T09:48:45;35.53;;;13.33;;
3491;SDS011;1760;52.480;13.422;2022-12-16T09:51:39;30.50;;;12.60;;
3491;SDS011;1760;52.480;13.422;2022-12-16T09:54:25;25.57;;;14.10;;
3491;SDS011;1760;52.480;13.422;2022-12-16T09:57:15;30.77;;;18.37;;
3491;SDS011;1760;52.480;13.422;2022-12-16T10:00:03;25.70;;;13.80;;
3491;SDS011;1760;52.480;13.422;2022-12-16T10:02:59;39.87;;;19.53;;
3491;SDS011;1760;52.480;13.422;2022-12-16T10:05:56;32.40;;;17.00;;
3491;SDS011;1760;52.480;13.422;2022-12-16T10:08:54;34.10;;;16.63;;
3491;SDS011;1760;52.480;13.422;2022-12-16T10:11:46;20.80;;;15.20;;
3491;SDS011;1760;52.480;13.422;2022-12-16T10:14:42;25.43;;;15.00;;
3491;SDS011;1760;52.480;13.422;2022-12-16T10:17:36;25.10;;;15.53;;
3491;SDS011;1760;52.480;13.422;2022-12-16T10:20:31;24.57;;;12.40;;
3491;SDS011;1760;52.480;13.422;2022-12-16T10:23:28;21.00;;;12.43;;
3491;SDS011;1760;52.480;13.422;2022-12-16T10:26:16;28.70;;;14.10;;
3491;SDS011;1760;52.480;13.422;2022-12-16T10:29:05;19.40;;;13.03;;
3491;SDS011;1760;52.480;13.422;2022-12-16T10:31:58;16.13;;;11.33;;
3491;SDS011;1760;52.480;13.422;2022-12-16T10:34:45;24.50;;;13.53;;
3491;SDS011;1760;52.480;13.422;2022-12-16T10:37:31;24.20;;;14.27;;
3491;SDS011;1760;52.480;13.422;2022-12-16T10:40:18;27.77;;;15.07;;
3491;SDS011;1760;52.480;13.422;2022-12-16T10:43:14;17.23;;;10.77;;
3491;SDS011;1760;52.480;13.422;2022-12-16T10:46:05;34.87;;;17.10;;
3491;SDS011;1760;52.480;13.422;2022-12-16T10:49:00;26.67;;;14.03;;
3491;SDS011;1760;52.480;13.422;2022-12-16T10:51:45;36.33;;;14.93;;
3491;SDS011;1760;52.480;13.422;2022-12-16T10:54:34;23.97;;;12.97;;
3491;SDS011;1760;52.480;13.422;2022-12-16T10:57:26;26.13;;;13.87;;
3491;SDS011;1760;52.480;13.422;2022-12-16T11:00:20;20.67;;;13.20;;
3491;SDS011;1760;52.480;13.422;2022-12-16T11:03:30;27.77;;;13.70;;
3491;SDS011;1760;52.480;13.422;2022-12-16T11:06:18;33.07;;;15.30;;
3491;SDS011;1760;52.480;13.422;2022-12-16T11:09:21;34.33;;;14.50;;
3491;SDS011;1760;52.480;13.422;2022-12-16T11:15:18;23.33;;;12.70;;
3491;SDS011;1760;52.480;13.422;2022-12-16T11:18:05;28.23;;;14.30;;
3491;SDS011;1760;52.480;13.422;2022-12-16T11:21:07;24.07;;;11.33;;
3491;SDS011;1760;52.480;13.422;2022-12-16T11:24:09;18.93;;;13.37;;
3491;SDS011;1760;52.480;13.422;2022-12-16T11:26:57;28.90;;;14.60;;
3491;SDS011;1760;52.480;13.422;2022-12-16T11:29:49;23.33;;;10.90;;
3491;SDS011;1760;52.480;13.422;2022-12-16T11:32:37;28.13;;;15.33;;
3491;SDS011;1760;52.480;13.422;2022-12-16T11:35:29;26.70;;;17.07;;
3491;SDS011;1760;52.480;13.422;2022-12-16T11:38:21;30.70;;;14.20;;
3491;SDS011;1760;52.480;13.422;2022-12-16T11:41:15;34.73;;;15.17;;
3491;SDS011;1760;52.480;13.422;2022-12-16T11:44:08;23.90;;;13.43;;
3491;SDS011;1760;52.480;13.422;2022-12-16T11:46:59;22.47;;;13.00;;
3491;SDS011;1760;52.480;13.422;2022-12-16T11:49:47;25.80;;;14.20;;
3491;SDS011;1760;52.480;13.422;2022-12-16T11:52:36;26.23;;;13.80;;
3491;SDS011;1760;52.480;13.422;2022-12-16T11:55:22;26.60;;;16.70;;
3491;SDS011;1760;52.480;13.422;2022-12-16T11:58:14;21.57;;;11.50;;
3491;SDS011;1760;52.480;13.422;2022-12-16T12:01:09;19.43;;;12.70;;
3491;SDS011;1760;52.480;13.422;2022-12-16T12:03:59;18.87;;;11.67;;
3491;SDS011;1760;52.480;13.422;2022-12-16T12:07:00;26.47;;;14.27;;
3491;SDS011;1760;52.480;13.422;2022-12-16T12:10:13;21.60;;;13.07;;
3491;SDS011;1760;52.480;13.422;2022-12-16T12:13:42;26.90;;;14.03;;
3491;SDS011;1760;52.480;13.422;2022-12-16T12:16:37;23.73;;;13.23;;
3491;SDS011;1760;52.480;13.422;2022-12-16T12:19:40;28.10;;;12.13;;
3491;SDS011;1760;52.480;13.422;2022-12-16T12:22:34;21.27;;;11.73;;
3491;SDS011;1760;52.480;13.422;2022-12-16T12:25:24;18.37;;;12.33;;
3491;SDS011;1760;52.480;13.422;2022-12-16T12:28:18;29.33;;;13.33;;
3491;SDS011;1760;52.480;13.422;2022-12-16T12:31:20;23.10;;;12.57;;
3491;SDS011;1760;52.480;13.422;2022-12-16T12:34:20;25.67;;;14.13;;
3491;SDS011;1760;52.480;13.422;2022-12-16T12:37:20;22.33;;;12.20;;
3491;SDS011;1760;52.480;13.422;2022-12-16T12:43:23;21.30;;;11.77;;
3491;SDS011;1760;52.480;13.422;2022-12-16T12:46:22;24.13;;;13.97;;
3491;SDS011;1760;52.480;13.422;2022-12-16T12:49:17;22.77;;;11.40;;
3491;SDS011;1760;52.480;13.422;2022-12-16T12:52:25;37.63;;;15.33;;
3491;SDS011;1760;52.480;13.422;2022-12-16T12:55:27;17.70;;;12.50;;
3491;SDS011;1760;52.480;13.422;2022-12-16T12:58:18;17.87;;;11.10;;
3491;SDS011;1760;52.480;13.422;2022-12-16T13:01:07;18.93;;;10.33;;
3491;SDS011;1760;52.480;13.422;2022-12-16T13:03:56;14.73;;;10.40;;
3491;SDS011;1760;52.480;13.422;2022-12-16T13:06:56;22.63;;;11.70;;
3491;SDS011;1760;52.480;13.422;2022-12-16T13:09:53;18.60;;;10.73;;
3491;SDS011;1760;52.480;13.422;2022-12-16T13:13:19;17.60;;;9.90;;
3491;SDS011;1760;52.480;13.422;2022-12-16T13:16:12;19.37;;;10.70;;
3491;SDS011;1760;52.480;13.422;2022-12-16T13:19:54;18.50;;;11.50;;
3491;SDS011;1760;52.480;13.422;2022-12-16T13:22:40;18.20;;;9.43;;
3491;SDS011;1760;52.480;13.422;2022-12-16T13:25:35;18.33;;;13.13;;
3491;SDS011;1760;52.480;13.422;2022-12-16T13:28:26;24.57;;;9.70;;
3491;SDS011;1760;52.480;13.422;2022-12-16T13:31:16;20.10;;;11.50;;
3491;SDS011;1760;52.480;13.422;2022-12-16T13:34:05;18.03;;;10.70;;
3491;SDS011;1760;52.480;13.422;2022-12-16T13:37:06;16.80;;;12.20;;
3491;SDS011;1760;52.480;13.422;2022-12-16T13:40:12;18.07;;;10.90;;
3491;SDS011;1760;52.480;13.422;2022-12-16T13:43:01;21.77;;;11.13;;
3491;SDS011;1760;52.480;13.422;2022-12-16T13:52:18;15.77;;;9.63;;
3491;SDS011;1760;52.480;13.422;2022-12-16T13:55:10;20.90;;;10.27;;
3491;SDS011;1760;52.480;13.422;2022-12-16T13:58:13;32.30;;;11.90;;
3491;SDS011;1760;52.480;13.422;2022-12-16T14:01:13;16.97;;;11.67;;
3491;SDS011;1760;52.480;13.422;2022-12-16T14:04:01;14.93;;;9.70;;
3491;SDS011;1760;52.480;13.422;2022-12-16T14:06:51;25.07;;;10.80;;
3491;SDS011;1760;52.480;13.422;2022-12-16T14:09:47;11.73;;;9.80;;
3491;SDS011;1760;52.480;13.422;2022-12-16T14:15:44;22.00;;;10.50;;
3491;SDS011;1760;52.480;13.422;2022-12-16T14:18:40;21.93;;;12.00;;
3491;SDS011;1760;52.480;13.422;2022-12-16T14:21:37;17.70;;;10.20;;
3491;SDS011;1760;52.480;13.422;2022-12-16T14:24:28;12.30;;;9.97;;
3491;SDS011;1760;52.480;13.422;2022-12-16T14:27:15;25.37;;;13.20;;
3491;SDS011;1760;52.480;13.422;2022-12-16T14:30:03;16.80;;;10.43;;
3491;SDS011;1760;52.480;13.422;2022-12-16T14:33:19;15.57;;;8.77;;
3491;SDS011;1760;52.480;13.422;2022-12-16T14:36:17;25.10;;;13.00;;
3491;SDS011;1760;52.480;13.422;2022-12-16T14:39:07;21.90;;;12.17;;
3491;SDS011;1760;52.480;13.422;2022-12-16T14:41:55;20.63;;;10.07;;
3491;SDS011;1760;52.480;13.422;2022-12-16T14:44:44;19.07;;;9.50;;
3491;SDS011;1760;52.480;13.422;2022-12-16T14:47:31;16.80;;;12.73;;
3491;SDS011;1760;52.480;13.422;2022-12-16T14:50:20;18.40;;;12.00;;
3491;SDS011;1760;52.480;13.422;2022-12-16T14:53:13;19.63;;;12.47;;
3491;SDS011;1760;52.480;13.422;2022-12-16T14:56:16;18.87;;;10.00;;
3491;SDS011;1760;52.480;13.422;2022-12-16T14:59:07;16.37;;;12.27;;
3491;SDS011;1760;52.480;13.422;2022-12-16T15:01:54;31.60;;;12.83;;
3491;SDS011;1760;52.480;13.422;2022-12-16T15:04:45;20.70;;;9.43;;
3491;SDS011;1760;52.480;13.422;2022-12-16T15:07:31;30.83;;;13.23;;
3491;SDS011;1760;52.480;13.422;2022-12-16T15:10:18;26.33;;;13.80;;
3491;SDS011;1760;52.480;13.422;2022-12-16T15:13:10;18.50;;;12.70;;
3491;SDS011;1760;52.480;13.422;2022-12-16T15:15:58;26.23;;;13.70;;
3491;SDS011;1760;52.480;13.422;2022-12-16T15:18:49;29.30;;;13.50;;
3491;SDS011;1760;52.480;13.422;2022-12-16T15:21:41;27.57;;;14.47;;
3491;SDS011;1760;52.480;13.422;2022-12-16T15:24:27;26.10;;;13.67;;
3491;SDS011;1760;52.480;13.422;2022-12-16T15:27:22;20.00;;;12.20;;
3491;SDS011;1760;52.480;13.422;2022-12-16T15:33:18;21.47;;;12.03;;
3491;SDS011;1760;52.480;13.422;2022-12-16T15:36:10;26.90;;;13.60;;
3491;SDS011;1760;52.480;13.422;2022-12-16T15:39:08;24.20;;;10.80;;
3491;SDS011;1760;52.480;13.422;2022-12-16T15:41:54;26.93;;;12.60;;
3491;SDS011;1760;52.480;13.422;2022-12-16T15:44:39;32.87;;;15.60;;
3491;SDS011;1760;52.480;13.422;2022-12-16T15:47:33;29.47;;;11.63;;
3491;SDS011;1760;52.480;13.422;2022-12-16T15:50:20;26.43;;;12.70;;
3491;SDS011;1760;52.480;13.422;2022-12-16T15:53:15;23.73;;;13.17;;
3491;SDS011;1760;52.480;13.422;2022-12-16T15:56:18;23.70;;;13.23;;
3491;SDS011;1760;52.480;13.422;2022-12-16T15:59:17;21.67;;;14.07;;
3491;SDS011;1760;52.480;13.422;2022-12-16T16:02:12;29.63;;;12.50;;
3491;SDS011;1760;52.480;13.422;2022-12-16T16:05:00;28.53;;;16.37;;
3491;SDS011;1760;52.480;13.422;2022-12-16T16:07:52;26.00;;;13.83;;
3491;SDS011;1760;52.480;13.422;2022-12-16T16:10:40;20.30;;;13.37;;
3491;SDS011;1760;52.480;13.422;2022-12-16T16:13:27;30.63;;;14.03;;
3491;SDS011;1760;52.480;13.422;2022-12-16T16:16:14;27.33;;;11.93;;
3491;SDS011;1760;52.480;13.422;2022-12-16T16:18:59;23.73;;;12.43;;
3491;SDS011;1760;52.480;13.422;2022-12-16T16:21:44;30.13;;;16.33;;
3491;SDS011;1760;52.480;13.422;2022-12-16T16:24:28;30.47;;;15.20;;
3491;SDS011;1760;52.480;13.422;2022-12-16T16:27:16;22.87;;;15.07;;
3491;SDS011;1760;52.480;13.422;2022-12-16T16:30:02;28.80;;;16.00;;
3491;SDS011;1760;52.480;13.422;2022-12-16T16:32:47;25.57;;;12.73;;
3491;SDS011;1760;52.480;13.422;2022-12-16T16:35:32;33.50;;;18.70;;
3491;SDS011;1760;52.480;13.422;2022-12-16T16:38:17;26.57;;;14.27;;
3491;SDS011;1760;52.480;13.422;2022-12-16T16:41:02;28.03;;;14.50;;
3491;SDS011;1760;52.480;13.422;2022-12-16T16:43:48;25.00;;;14.60;;
3491;SDS011;1760;52.480;13.422;2022-12-16T16:46:33;25.90;;;14.40;;
3491;SDS011;1760;52.480;13.422;2022-12-16T16:49:21;21.60;;;14.27;;
3491;SDS011;1760;52.480;13.422;2022-12-16T16:52:09;29.67;;;15.97;;
3491;SDS011;1760;52.480;13.422;2022-12-16T16:54:55;27.37;;;16.33;;